createdAt,value
2018-07-23T00:02:24.283Z,62.60
2018-07-23T00:04:52.875Z,63.50
2018-07-23T00:07:21.217Z,63.30
2018-07-23T00:09:49.596Z,63.50
2018-07-23T00:12:17.928Z,63.80
2018-07-23T00:14:46.305Z,63.70
2018-07-23T00:17:14.651Z,63.70
2018-07-23T00:19:43.000Z,63.90
2018-07-23T00:22:11.354Z,64.10
2018-07-23T00:24:39.707Z,64.30
2018-07-23T00:27:08.283Z,64.60
2018-07-23T00:29:36.649Z,64.80
2018-07-23T00:37:01.157Z,65.40
2018-07-23T00:39:29.534Z,65.40
2018-07-23T00:41:57.870Z,65.50
2018-07-23T00:44:26.296Z,65.60
2018-07-23T00:46:54.627Z,65.70
2018-07-23T00:49:22.971Z,65.70
2018-07-23T00:54:19.420Z,66.00
2018-07-23T00:56:47.751Z,66.00
2018-07-23T00:59:16.193Z,66.10
2018-07-23T01:01:44.520Z,67.00
2018-07-23T01:04:12.890Z,66.40
2018-07-23T01:06:41.240Z,66.40
2018-07-23T01:09:10.751Z,66.80
2018-07-23T01:11:39.163Z,67.20
2018-07-23T01:14:07.784Z,67.30
2018-07-23T01:16:36.133Z,67.20
2018-07-23T01:19:04.532Z,67.10
2018-07-23T01:21:32.900Z,67.20
2018-07-23T01:24:01.236Z,67.40
2018-07-23T01:26:29.604Z,67.40
2018-07-23T01:28:57.952Z,67.50
2018-07-23T01:31:26.328Z,67.70
2018-07-23T01:33:54.656Z,67.80
2018-07-23T01:36:23.015Z,68.00
2018-07-23T01:38:51.351Z,68.20
2018-07-23T01:41:19.712Z,68.40
2018-07-23T01:43:48.050Z,68.40
2018-07-23T01:46:16.411Z,68.60
2018-07-23T01:48:44.742Z,68.80
2018-07-23T01:51:13.103Z,69.10
2018-07-23T01:53:41.503Z,69.30
2018-07-23T01:56:09.860Z,69.30
2018-07-23T01:58:38.275Z,69.40
2018-07-23T02:01:10.208Z,69.40
2018-07-23T02:03:39.373Z,69.40
2018-07-23T02:06:08.260Z,69.70
2018-07-23T02:08:36.604Z,70.60
2018-07-23T02:11:05.884Z,70.00
2018-07-23T02:13:34.268Z,69.80
2018-07-23T02:16:02.673Z,69.80
2018-07-23T02:18:31.330Z,70.20
2018-07-23T02:20:59.728Z,70.20
2018-07-23T02:23:28.076Z,70.60
2018-07-23T02:25:56.455Z,70.80
2018-07-23T02:28:24.789Z,70.50
2018-07-23T02:30:53.152Z,70.60
2018-07-23T02:33:21.508Z,70.90
2018-07-23T02:35:49.876Z,70.90
2018-07-23T02:38:18.211Z,71.00
2018-07-23T02:40:46.589Z,71.00
2018-07-23T02:43:14.927Z,71.20
2018-07-23T02:45:43.309Z,71.20
2018-07-23T02:48:11.632Z,71.20
2018-07-23T02:50:39.996Z,71.20
2018-07-23T02:53:08.600Z,71.30
2018-07-23T02:55:36.972Z,71.70
2018-07-23T02:58:05.304Z,72.20
2018-07-23T03:00:33.702Z,72.40
2018-07-23T03:03:02.057Z,72.20
2018-07-23T03:05:30.423Z,72.00
2018-07-23T03:12:54.925Z,72.50
2018-07-23T03:15:23.300Z,72.60
2018-07-23T03:17:51.668Z,72.50
2018-07-23T03:20:20.019Z,72.70
2018-07-23T03:22:48.377Z,72.70
2018-07-23T03:25:16.720Z,73.00
2018-07-23T03:27:45.071Z,72.70
2018-07-23T03:30:13.421Z,72.90
2018-07-23T03:32:41.792Z,72.90
2018-07-23T03:35:10.145Z,73.00
2018-07-23T03:37:38.495Z,73.00
2018-07-23T03:40:06.845Z,73.20
2018-07-23T03:42:35.211Z,73.10
2018-07-23T03:45:03.580Z,73.40
2018-07-23T03:47:31.952Z,73.40
2018-07-23T03:52:28.372Z,73.50
2018-07-23T03:54:56.797Z,73.80
2018-07-23T03:57:25.158Z,73.70
2018-07-23T03:59:53.515Z,73.60
2018-07-23T04:02:21.884Z,73.40
2018-07-23T04:04:50.212Z,73.90
2018-07-23T04:07:18.563Z,73.90
2018-07-23T04:09:46.891Z,73.70
2018-07-23T04:12:15.270Z,73.50
2018-07-23T04:14:43.607Z,73.60
2018-07-23T04:17:12.014Z,73.80
2018-07-23T04:19:40.358Z,74.10
2018-07-23T04:22:08.720Z,74.00
2018-07-23T04:24:37.057Z,74.20
2018-07-23T04:27:05.452Z,73.80
2018-07-23T04:29:33.810Z,73.60
2018-07-23T04:32:02.182Z,73.80
2018-07-23T04:34:30.575Z,73.70
2018-07-23T04:36:58.937Z,73.80
2018-07-23T04:41:55.351Z,73.70
2018-07-23T04:44:23.683Z,73.80
2018-07-23T04:46:52.064Z,73.70
2018-07-23T04:49:20.426Z,73.50
2018-07-23T04:51:48.787Z,73.60
2018-07-23T04:54:17.151Z,73.30
2018-07-23T04:56:45.539Z,73.50
2018-07-23T04:59:13.896Z,73.60
2018-07-23T05:01:42.252Z,73.50
2018-07-23T05:04:10.583Z,73.50
2018-07-23T05:06:38.935Z,73.40
2018-07-23T05:09:09.495Z,73.50
2018-07-23T05:11:37.860Z,73.40
2018-07-23T05:14:06.880Z,73.40
2018-07-23T05:16:35.248Z,73.40
2018-07-23T05:19:03.696Z,73.20
2018-07-23T05:21:32.038Z,73.20
2018-07-23T05:24:00.401Z,73.30
2018-07-23T05:26:28.855Z,73.10
2018-07-23T05:28:57.215Z,73.10
2018-07-23T05:31:25.541Z,72.90
2018-07-23T05:33:53.937Z,73.00
2018-07-23T05:36:22.291Z,73.00
2018-07-23T05:38:50.656Z,73.20
2018-07-23T05:41:18.987Z,73.10
2018-07-23T05:43:47.348Z,73.20
2018-07-23T05:53:39.948Z,73.40
2018-07-23T06:01:04.492Z,73.50
2018-07-23T06:03:32.962Z,73.40
2018-07-23T06:06:01.296Z,73.30
2018-07-23T06:08:29.659Z,73.10
2018-07-23T06:10:58.035Z,73.00
2018-07-23T06:13:26.435Z,72.80
2018-07-23T06:15:54.768Z,72.50
2018-07-23T06:18:23.143Z,72.60
2018-07-23T06:20:51.507Z,72.40
2018-07-23T06:25:48.825Z,72.10
2018-07-23T06:28:17.276Z,72.10
2018-07-23T06:30:45.629Z,71.70
2018-07-23T06:33:14.248Z,71.40
2018-07-23T06:35:42.596Z,71.10
2018-07-23T06:40:39.024Z,71.00
2018-07-23T06:43:07.394Z,70.40
2018-07-23T06:45:35.735Z,70.20
2018-07-23T06:48:04.150Z,70.20
2018-07-23T06:50:32.561Z,69.80
2018-07-23T06:53:00.928Z,69.70
2018-07-23T06:55:29.319Z,69.70
2018-07-23T06:57:57.668Z,69.10
2018-07-23T07:00:26.092Z,68.70
2018-07-23T07:05:22.529Z,67.50
2018-07-23T07:07:50.884Z,67.50
2018-07-23T07:10:19.206Z,67.40
2018-07-23T07:15:15.616Z,66.30
2018-07-23T07:17:43.956Z,66.30
2018-07-23T07:20:12.325Z,65.50
2018-07-23T07:22:40.659Z,65.10
2018-07-23T07:25:09.033Z,64.90
2018-07-23T07:27:37.363Z,64.80
2018-07-23T07:30:06.884Z,64.70
2018-07-23T07:32:35.236Z,64.00
2018-07-23T07:37:31.689Z,63.50
2018-07-23T07:44:56.187Z,62.40
2018-07-23T07:47:24.532Z,62.10
2018-07-23T07:49:52.902Z,61.90
2018-07-23T07:52:21.232Z,61.20
2018-07-23T07:54:49.647Z,60.90
2018-07-23T07:57:17.987Z,60.30
2018-07-23T07:59:46.368Z,60.10
2018-07-23T08:02:14.691Z,60.10
2018-07-23T08:04:43.067Z,59.90
2018-07-23T08:07:11.450Z,59.60
2018-07-23T08:12:08.371Z,59.10
2018-07-23T08:14:36.725Z,59.00
2018-07-23T08:17:05.076Z,58.50
2018-07-23T08:19:33.424Z,58.70
2018-07-23T08:24:29.865Z,58.20
2018-07-23T08:26:58.207Z,57.90
2018-07-23T08:29:26.577Z,57.40
2018-07-23T08:31:55.011Z,57.20
2018-07-23T08:34:23.303Z,57.30
2018-07-23T08:39:19.731Z,56.60
2018-07-23T08:41:48.047Z,57.40
2018-07-23T08:44:16.392Z,56.80
2018-07-23T08:46:44.707Z,56.90
2018-07-23T08:49:13.055Z,56.90
2018-07-23T08:51:41.367Z,56.80
2018-07-23T08:54:09.720Z,57.00
2018-07-23T08:59:06.147Z,55.50
2018-07-23T09:01:34.477Z,55.10
2018-07-23T09:04:02.829Z,54.60
2018-07-23T09:11:27.315Z,53.40
2018-07-23T09:13:55.655Z,53.40
2018-07-23T09:16:24.004Z,53.50
2018-07-23T09:18:52.326Z,53.70
2018-07-23T09:21:20.689Z,53.70
2018-07-23T09:23:49.147Z,53.80
2018-07-23T09:26:17.521Z,53.60
2018-07-23T09:28:45.919Z,53.50
2018-07-23T09:31:14.348Z,53.20
2018-07-23T09:33:42.780Z,53.20
2018-07-23T09:36:11.140Z,53.40
2018-07-23T09:38:39.464Z,53.00
2018-07-23T09:41:07.830Z,52.80
2018-07-23T09:43:36.159Z,52.90
2018-07-23T09:46:04.699Z,52.40
2018-07-23T09:48:33.028Z,51.70
2018-07-23T09:51:01.387Z,51.60
2018-07-23T09:53:29.744Z,51.50
2018-07-23T09:55:58.172Z,51.60
2018-07-23T09:58:26.653Z,51.30
2018-07-23T10:01:02.312Z,50.60
2018-07-23T10:03:30.929Z,50.20
2018-07-23T10:05:59.226Z,49.90
2018-07-23T10:08:27.616Z,49.70
2018-07-23T10:10:56.053Z,49.10
2018-07-23T10:13:24.476Z,48.70
2018-07-23T10:15:52.889Z,48.60
2018-07-23T10:18:21.342Z,48.50
2018-07-23T10:20:49.769Z,48.30
2018-07-23T10:23:18.136Z,48.30
2018-07-23T10:25:46.542Z,48.10
2018-07-23T10:28:14.938Z,48.00
2018-07-23T10:30:43.339Z,48.20
2018-07-23T10:33:11.760Z,48.00
2018-07-23T10:35:40.161Z,47.90
2018-07-23T10:38:08.546Z,47.90
2018-07-23T10:40:36.957Z,48.10
2018-07-23T10:43:05.386Z,47.90
2018-07-23T10:45:33.845Z,47.40
2018-07-23T10:48:02.304Z,46.90
2018-07-23T10:50:30.657Z,47.20
2018-07-23T10:52:58.983Z,46.90
2018-07-23T10:55:27.368Z,46.40
2018-07-23T10:57:55.724Z,46.10
2018-07-23T11:00:24.100Z,45.70
2018-07-23T11:02:52.478Z,45.30
2018-07-23T11:05:20.812Z,45.40
2018-07-23T11:10:17.256Z,45.10
2018-07-23T11:12:45.614Z,44.50
2018-07-23T11:15:13.980Z,44.30
2018-07-23T11:17:42.336Z,44.20
2018-07-23T11:20:12.107Z,44.60
2018-07-23T11:22:40.828Z,44.90
2018-07-23T11:25:38.701Z,44.60
2018-07-23T11:27:37.575Z,44.70
2018-07-23T11:34:56.555Z,44.90
2018-07-23T11:37:24.927Z,43.40
2018-07-23T11:39:53.272Z,43.20
2018-07-23T11:42:21.655Z,42.30
2018-07-23T11:44:49.995Z,41.80
2018-07-23T11:47:18.361Z,41.30
2018-07-23T11:49:46.705Z,40.80
2018-07-23T11:52:15.065Z,40.40
2018-07-23T11:54:43.613Z,40.00
2018-07-23T11:57:12.205Z,40.10
2018-07-23T11:59:41.700Z,40.10
2018-07-23T12:04:38.269Z,39.30
2018-07-23T12:07:07.172Z,38.80
2018-07-23T12:09:35.511Z,38.60
2018-07-23T12:12:03.876Z,38.00
2018-07-23T12:14:32.340Z,38.00
2018-07-23T12:17:00.695Z,37.80
2018-07-23T12:19:29.024Z,37.20
2018-07-23T12:21:57.371Z,36.90
2018-07-23T12:24:25.710Z,36.90
2018-07-23T12:26:54.067Z,37.20
2018-07-23T12:29:22.401Z,37.20
2018-07-23T12:31:50.756Z,37.40
2018-07-23T12:34:19.109Z,37.40
2018-07-23T12:36:47.462Z,37.70
2018-07-23T12:39:15.794Z,37.30
2018-07-23T12:41:44.148Z,37.10
2018-07-23T12:44:12.481Z,36.60
2018-07-23T12:46:40.859Z,36.10
2018-07-23T12:49:09.260Z,35.80
2018-07-23T12:51:37.606Z,35.90
2018-07-23T12:54:05.979Z,35.80
2018-07-23T12:56:34.305Z,35.90
2018-07-23T12:59:02.691Z,35.40
2018-07-23T13:01:31.015Z,34.70
2018-07-23T13:03:59.367Z,34.30
2018-07-23T13:08:55.843Z,34.20
2018-07-23T13:11:24.184Z,34.50
2018-07-23T13:13:52.588Z,34.90
2018-07-23T13:18:49.049Z,33.40
2018-07-23T13:21:17.423Z,32.70
2018-07-23T13:26:13.851Z,32.10
2018-07-23T13:28:42.247Z,31.90
2018-07-23T13:33:38.756Z,31.20
2018-07-23T13:36:07.088Z,30.90
2018-07-23T13:45:59.714Z,30.40
2018-07-23T13:48:28.076Z,30.60
2018-07-23T13:50:56.407Z,30.20
2018-07-23T13:53:24.775Z,29.90
2018-07-23T13:55:53.114Z,29.90
2018-07-23T13:58:21.523Z,29.60
2018-07-23T14:00:49.859Z,29.40
2018-07-23T14:05:46.285Z,30.00
2018-07-23T14:08:14.640Z,30.60
2018-07-23T14:10:43.020Z,31.10
2018-07-23T14:13:11.439Z,31.50
2018-07-23T14:15:39.791Z,31.40
2018-07-23T14:18:08.154Z,30.80
2018-07-23T14:20:36.788Z,30.80
2018-07-23T14:23:05.180Z,30.50
2018-07-23T14:25:33.747Z,30.20
2018-07-23T14:28:02.099Z,29.90
2018-07-23T14:30:30.452Z,29.70
2018-07-23T14:32:58.832Z,29.40
2018-07-23T14:35:27.163Z,29.00
2018-07-23T14:37:55.484Z,29.00
2018-07-23T14:40:23.850Z,28.90
2018-07-23T14:42:52.237Z,28.70
2018-07-23T14:45:20.619Z,28.60
2018-07-23T14:47:48.940Z,28.50
2018-07-23T14:50:17.313Z,28.50
2018-07-23T14:52:45.639Z,28.60
2018-07-23T14:55:13.999Z,28.40
2018-07-23T14:57:42.394Z,28.40
2018-07-23T15:00:10.768Z,28.20
2018-07-23T15:02:39.103Z,28.10
2018-07-23T15:05:07.484Z,28.50
2018-07-23T15:07:35.809Z,27.80
2018-07-23T15:10:04.284Z,27.80
2018-07-23T15:12:32.608Z,27.70
2018-07-23T15:15:00.966Z,28.00
2018-07-23T15:17:29.300Z,27.50
2018-07-23T15:19:57.665Z,27.60
2018-07-23T15:22:25.991Z,27.40
2018-07-23T15:24:54.344Z,27.30
2018-07-23T15:27:22.724Z,27.30
2018-07-23T15:29:51.067Z,27.30
2018-07-23T15:32:19.401Z,27.20
2018-07-23T15:34:47.753Z,27.20
2018-07-23T15:37:16.098Z,27.10
2018-07-23T15:39:44.457Z,26.90
2018-07-23T15:44:41.276Z,26.70
2018-07-23T15:47:09.235Z,26.70
2018-07-23T15:49:37.595Z,26.70
2018-07-23T15:52:05.964Z,26.40
2018-07-23T15:54:34.421Z,26.10
2018-07-23T15:59:30.859Z,25.70
2018-07-23T16:01:59.191Z,26.10
2018-07-23T16:04:27.543Z,25.60
2018-07-23T16:06:55.867Z,25.40
2018-07-23T16:09:24.225Z,25.60
2018-07-23T16:11:52.575Z,25.70
2018-07-23T16:14:20.939Z,25.50
2018-07-23T16:19:17.375Z,25.90
2018-07-23T16:21:45.703Z,25.30
2018-07-23T16:24:14.055Z,25.20
2018-07-23T16:26:42.416Z,25.20
2018-07-23T16:29:10.783Z,25.00
2018-07-23T16:31:39.149Z,25.00
2018-07-23T16:34:07.506Z,25.00
2018-07-23T16:36:35.880Z,24.90
2018-07-23T16:39:06.803Z,25.10
2018-07-23T16:41:35.156Z,25.10
2018-07-23T16:44:03.792Z,25.30
2018-07-23T16:46:32.155Z,25.40
2018-07-23T16:49:00.543Z,25.30
2018-07-23T16:51:28.940Z,25.20
2018-07-23T16:53:57.265Z,25.20
2018-07-23T16:56:25.632Z,25.20
2018-07-23T16:58:53.993Z,25.20
2018-07-23T17:01:22.383Z,25.20
2018-07-23T17:03:50.715Z,25.10
2018-07-23T17:06:19.068Z,25.00
2018-07-23T17:11:15.493Z,24.80
2018-07-23T17:13:43.812Z,24.60
2018-07-23T17:18:40.733Z,24.30
2018-07-23T17:21:09.483Z,24.30
2018-07-23T17:23:37.846Z,24.20
2018-07-23T17:26:06.243Z,24.10
2018-07-23T17:28:34.588Z,23.90
2018-07-23T17:31:03.198Z,23.70
2018-07-23T17:33:31.531Z,23.60
2018-07-23T17:35:59.893Z,24.10
2018-07-23T17:38:28.247Z,23.60
2018-07-23T17:40:56.617Z,23.50
2018-07-23T17:43:24.963Z,23.30
2018-07-23T17:45:53.333Z,23.30
2018-07-23T17:48:21.676Z,23.10
2018-07-23T17:50:50.045Z,22.90
2018-07-23T17:53:18.379Z,22.70
2018-07-23T17:55:46.779Z,22.70
2018-07-23T17:58:15.155Z,23.30
2018-07-23T18:03:11.619Z,22.90
2018-07-23T18:08:08.088Z,23.30
2018-07-23T18:10:36.457Z,23.70
2018-07-23T18:13:04.813Z,24.30
2018-07-23T18:15:33.180Z,24.70
2018-07-23T18:18:01.540Z,25.00
2018-07-23T18:20:29.913Z,25.40
2018-07-23T18:22:58.263Z,25.70
2018-07-23T18:25:26.623Z,26.10
2018-07-23T18:27:55.079Z,26.40
2018-07-23T18:30:23.455Z,26.90
2018-07-23T18:32:51.813Z,27.80
2018-07-23T18:35:20.135Z,27.40
2018-07-23T18:37:48.586Z,27.80
2018-07-23T18:42:44.968Z,28.40
2018-07-23T18:45:13.315Z,28.70
2018-07-23T18:47:41.694Z,29.00
2018-07-23T18:50:10.070Z,29.30
2018-07-23T18:52:38.452Z,29.60
2018-07-23T18:55:06.791Z,29.80
2018-07-23T18:57:35.140Z,29.90
2018-07-23T19:02:31.659Z,30.40
2018-07-23T19:04:59.991Z,30.70
2018-07-23T19:07:28.359Z,31.10
2018-07-23T19:14:52.871Z,32.20
2018-07-23T19:17:21.227Z,32.60
2018-07-23T19:19:49.573Z,33.10
2018-07-23T19:22:17.963Z,33.50
2018-07-23T19:24:46.284Z,33.80
2018-07-23T19:27:14.676Z,34.30
2018-07-23T19:29:42.998Z,34.80
2018-07-23T19:32:11.351Z,35.10
2018-07-23T19:34:39.675Z,35.60
2018-07-23T19:37:08.046Z,35.90
2018-07-23T19:39:36.370Z,36.40
2018-07-23T19:44:32.803Z,36.80
2018-07-23T19:47:01.206Z,37.10
2018-07-23T19:51:57.635Z,37.50
2018-07-23T19:54:25.976Z,37.90
2018-07-23T19:56:54.331Z,38.40
2018-07-23T19:59:22.710Z,38.60
2018-07-23T20:01:51.087Z,39.20
2018-07-23T20:04:19.416Z,39.50
2018-07-23T20:06:47.784Z,39.90
2018-07-23T20:09:16.120Z,40.50
2018-07-23T20:11:44.487Z,40.80
2018-07-23T20:16:40.991Z,41.40
2018-07-23T20:19:09.319Z,41.40
2018-07-23T20:24:06.223Z,42.50
2018-07-23T20:26:34.575Z,42.90
2018-07-23T20:29:02.951Z,43.10
2018-07-23T20:31:31.567Z,43.10
2018-07-23T20:33:59.948Z,43.60
2018-07-23T20:36:28.283Z,43.90
2018-07-23T20:41:24.747Z,44.80
2018-07-23T20:46:22.096Z,45.40
2018-07-23T20:48:50.478Z,45.70
2018-07-23T20:51:18.831Z,46.00
2018-07-23T20:53:47.207Z,46.40
2018-07-23T20:56:15.559Z,46.80
2018-07-23T20:58:43.916Z,47.10
2018-07-23T21:03:40.392Z,47.50
2018-07-23T21:06:08.759Z,47.90
2018-07-23T21:11:05.216Z,48.20
2018-07-23T21:13:33.563Z,48.50
2018-07-23T21:16:01.899Z,48.90
2018-07-23T21:18:30.255Z,49.20
2018-07-23T21:20:58.639Z,49.60
2018-07-23T21:23:27.060Z,49.70
2018-07-23T21:25:55.404Z,49.90
2018-07-23T21:28:24.664Z,50.10
2018-07-23T21:30:53.036Z,50.40
2018-07-23T21:33:21.463Z,50.50
2018-07-23T21:35:49.811Z,50.60
2018-07-23T21:40:46.235Z,51.30
2018-07-23T21:43:14.595Z,51.40
2018-07-23T21:45:42.927Z,51.60
2018-07-23T21:50:39.455Z,52.10
2018-07-23T21:53:07.823Z,52.50
2018-07-23T21:55:36.155Z,52.90
2018-07-23T21:58:04.571Z,53.40
2018-07-23T22:00:36.050Z,53.70
2018-07-23T22:03:04.392Z,54.00
2018-07-23T22:05:32.741Z,54.50
2018-07-23T22:08:01.120Z,54.70
2018-07-23T22:10:29.451Z,54.80
2018-07-23T22:12:57.782Z,55.10
2018-07-23T22:15:26.156Z,55.40
2018-07-23T22:17:54.504Z,55.80
2018-07-23T22:20:22.885Z,55.90
2018-07-23T22:22:51.220Z,56.20
2018-07-23T22:25:19.589Z,56.30
2018-07-23T22:27:48.065Z,56.50
2018-07-23T22:30:16.498Z,56.80
2018-07-23T22:32:44.791Z,56.90
2018-07-23T22:35:13.175Z,57.10
2018-07-23T22:40:09.614Z,57.50
2018-07-23T22:42:37.952Z,57.70
2018-07-23T22:45:07.122Z,57.90
2018-07-23T22:47:35.472Z,58.20
2018-07-23T22:50:04.120Z,58.40
2018-07-23T22:52:32.591Z,58.30
2018-07-23T22:55:00.960Z,58.60
2018-07-23T22:57:29.329Z,58.80
2018-07-23T22:59:57.747Z,58.80
2018-07-23T23:02:26.121Z,59.00
2018-07-23T23:04:54.492Z,59.00
2018-07-23T23:07:22.844Z,59.80
2018-07-23T23:09:51.216Z,59.30
2018-07-23T23:12:19.555Z,59.50
2018-07-23T23:14:47.988Z,59.70
2018-07-23T23:17:16.340Z,59.80
2018-07-23T23:19:44.700Z,59.80
2018-07-23T23:22:13.068Z,59.80
2018-07-23T23:24:41.440Z,59.80
2018-07-23T23:27:11.239Z,60.00
2018-07-23T23:29:39.605Z,60.20
2018-07-23T23:32:07.955Z,60.30
2018-07-23T23:34:36.313Z,60.50
2018-07-23T23:37:04.656Z,60.80
2018-07-23T23:39:33.016Z,61.20
2018-07-23T23:42:01.343Z,61.50
2018-07-23T23:44:29.717Z,61.40
2018-07-23T23:46:58.084Z,61.10
2018-07-23T23:49:26.456Z,61.30
2018-07-23T23:51:54.851Z,61.10
2018-07-23T23:54:23.196Z,61.20
2018-07-23T23:56:51.578Z,61.50
2018-07-23T23:59:19.935Z,61.50
